Time;durP1;ratioP1;P1;durP2;ratioP2;P2;SDS_P1;SDS_P2;PMS_P1;PMS_P2;Temp;Humidity;BMP_temperature;BMP_pressure;BME280_temperature;BME280_humidity;BME280_pressure;Samples;Min_cycle;Max_cycle;Signal;HPM_P1;HPM_P2
2020/12/11 00:00:18;;;;;;;262.90;149.98;;;;;;;4.63;75.23;101552.59;4934598;29;20032;-84
2020/12/11 00:02:46;;;;;;;270.75;154.80;;;;;;;4.78;74.98;101565.44;4938376;29;20118;-85
2020/12/11 00:05:13;;;;;;;276.38;150.98;;;;;;;5.90;74.86;101741.06;4917134;29;20024;-84
2020/12/11 00:07:41;;;;;;;258.95;149.07;;;;;;;5.91;74.59;101745.50;4928376;29;20024;-86
2020/12/11 00:10:11;;;;;;;265.38;149.75;;;;;;;4.45;74.56;101489.06;4929038;29;20030;-85
2020/12/11 00:12:38;;;;;;;266.83;152.50;;;;;;;3.87;74.52;101399.31;4921188;29;20032;-85
2020/12/11 00:15:07;;;;;;;253.77;152.65;;;;;;;3.70;74.94;101381.19;4918398;29;20283;-85
2020/12/11 00:17:35;;;;;;;249.85;143.05;;;;;;;4.30;75.03;101478.09;4918997;29;20536;-85
2020/12/11 00:20:04;;;;;;;258.73;153.60;;;;;;;5.02;74.51;101579.88;4921677;29;20042;-85
2020/12/11 00:22:31;;;;;;;260.13;152.43;;;;;;;5.30;74.77;101615.69;4914612;29;20031;-85
2020/12/11 00:24:58;;;;;;;253.40;148.40;;;;;;;6.04;74.83;101752.22;4913464;29;20750;-83
2020/12/11 00:27:28;;;;;;;257.45;153.60;;;;;;;4.89;74.16;101555.88;4914790;29;20039;-85
2020/12/11 00:29:55;;;;;;;266.15;150.32;;;;;;;4.67;73.52;101506.44;4931636;29;20073;-82
2020/12/11 00:32:22;;;;;;;258.17;151.90;;;;;;;5.82;73.94;101673.31;4916001;29;20070;-86
2020/12/11 00:34:49;;;;;;;261.90;150.40;;;;;;;6.34;73.28;101752.94;4915081;29;20070;-85
2020/12/11 00:37:16;;;;;;;264.25;151.48;;;;;;;5.47;73.94;101602.56;4932716;29;20500;-85
2020/12/11 00:39:43;;;;;;;256.58;147.57;;;;;;;5.71;73.91;101621.63;4915568;29;20032;-85
2020/12/11 00:42:10;;;;;;;275.88;153.82;;;;;;;5.86;73.75;101649.03;4915650;29;20052;-86
2020/12/11 00:44:37;;;;;;;251.82;147.85;;;;;;;5.69;72.87;101631.94;4932846;29;20035;-87
2020/12/11 00:47:06;;;;;;;261.23;151.18;;;;;;;5.68;72.99;101652.22;4916058;29;20385;-84
2020/12/11 00:49:33;;;;;;;260.77;151.70;;;;;;;5.77;73.05;101639.22;4915175;29;20122;-85
2020/12/11 00:52:00;;;;;;;248.63;149.80;;;;;;;6.47;72.88;101735.69;4933290;29;20024;-86
2020/12/11 00:54:27;;;;;;;262.80;154.10;;;;;;;5.41;72.55;101539.34;4915142;29;20497;-85
2020/12/11 00:56:54;;;;;;;274.60;155.07;;;;;;;5.87;72.42;101604.00;4931402;29;20050;-84
2020/12/11 00:59:21;;;;;;;276.92;152.77;;;;;;;6.61;72.73;101719.31;4932251;29;20032;-85
2020/12/11 01:01:48;;;;;;;250.90;145.95;;;;;;;6.78;71.77;101726.19;4931338;29;20054;-86
2020/12/11 01:04:15;;;;;;;242.85;143.07;;;;;;;5.70;70.18;101553.97;4914941;29;20441;-85
2020/12/11 01:06:42;;;;;;;224.18;132.05;;;;;;;7.03;68.99;101723.00;4915811;29;20039;-83
2020/12/11 01:09:13;;;;;;;225.38;131.55;;;;;;;7.27;67.98;101718.03;4915805;29;20038;-85
2020/12/11 01:11:39;;;;;;;;;;;;;;;7.63;66.86;101707.81;4910968;29;20493;-83
2020/12/11 01:14:06;;;;;;;231.32;130.23;;;;;;;6.67;67.32;101590.00;4898305;29;20009;-85
2020/12/11 01:16:33;;;;;;;200.77;115.38;;;;;;;7.41;66.68;101727.22;4908336;29;20075;-82
2020/12/11 01:19:00;;;;;;;214.05;119.88;;;;;;;7.74;65.63;101709.13;4917244;29;20122;-85
2020/12/11 01:21:30;;;;;;;218.50;125.57;;;;;;;7.71;65.98;101726.06;4933315;29;20106;-86
2020/12/11 01:24:12;;;;;;;203.38;116.85;;;;;;;6.70;64.42;101515.31;4914524;29;20094;-84
2020/12/11 01:26:47;;;;;;;185.88;112.30;;;;;;;7.92;65.05;101733.34;4919069;29;20079;-84
2020/12/11 01:29:14;;;;;;;181.90;105.68;;;;;;;7.01;65.04;101636.13;4915782;29;20040;-86
2020/12/11 01:31:41;;;;;;;164.73;98.63;;;;;;;6.61;64.24;101497.28;4916729;29;20444;-85
2020/12/11 01:34:08;;;;;;;170.73;99.90;;;;;;;6.50;63.67;101489.59;4921663;29;20090;-87
2020/12/11 01:36:35;;;;;;;171.20;96.38;;;;;;;7.79;63.26;101679.03;4919430;29;20043;-85
2020/12/11 01:39:02;;;;;;;159.82;91.60;;;;;;;6.74;63.63;101529.50;4919546;29;20034;-85
2020/12/11 01:41:32;;;;;;;167.80;92.82;;;;;;;7.40;63.39;101642.88;4919097;29;20099;-84
2020/12/11 01:44:10;;;;;;;168.77;93.63;;;;;;;7.44;63.18;101655.19;4920197;29;20586;-85
2020/12/11 01:46:41;;;;;;;158.15;94.75;;;;;;;7.68;63.26;101710.78;4926829;29;20032;-85
2020/12/11 01:49:10;;;;;;;161.65;94.20;;;;;;;7.28;63.43;101633.47;4919035;29;20059;-86
2020/12/11 01:51:38;;;;;;;158.77;98.57;;;;;;;7.23;64.13;101637.72;4927114;29;20032;-86
2020/12/11 01:54:06;;;;;;;184.80;105.53;;;;;;;7.71;64.17;101720.56;4920070;29;20031;-84
2020/12/11 01:56:40;;;;;;;169.93;98.03;;;;;;;7.16;64.48;101678.16;4926831;29;20506;-85
2020/12/11 01:59:13;;;;;;;164.63;99.57;;;;;;;7.34;64.83;101710.66;4928227;29;20067;-85
2020/12/11 02:01:41;;;;;;;168.25;99.75;;;;;;;7.52;64.25;101723.88;4919504;29;20482;-84
2020/12/11 02:04:08;;;;;;;163.93;97.05;;;;;;;6.98;63.90;101621.75;4919207;29;20508;-84
2020/12/11 02:06:36;;;;;;;158.48;91.45;;;;;;;7.64;63.60;101710.38;4921243;29;20402;-84
2020/12/11 02:09:03;;;;;;;145.57;90.57;;;;;;;6.76;61.82;101549.41;4917522;29;20039;-86
2020/12/11 02:11:30;;;;;;;171.30;95.03;;;;;;;7.46;62.37;101658.56;4918965;29;20031;-88
2020/12/11 02:13:57;;;;;;;152.10;89.25;;;;;;;7.08;61.37;101563.50;4918099;29;20393;-84
2020/12/11 02:16:24;;;;;;;144.90;90.00;;;;;;;8.13;60.23;101712.19;4934892;29;20028;-85
2020/12/11 02:18:51;;;;;;;144.32;85.80;;;;;;;7.37;60.58;101604.72;4917854;29;20075;-85
2020/12/11 02:21:18;;;;;;;111.63;70.65;;;;;;;6.85;56.73;101470.25;4917792;29;20098;-85
2020/12/11 02:23:46;;;;;;;111.35;66.80;;;;;;;7.74;55.74;101594.16;4918077;29;20478;-84
2020/12/11 02:26:15;;;;;;;127.20;74.05;;;;;;;8.15;57.74;101702.59;4932694;29;20374;-85
2020/12/11 02:28:42;;;;;;;128.73;73.28;;;;;;;8.14;57.97;101708.34;4920063;29;20122;-86
2020/12/11 02:31:09;;;;;;;124.80;74.50;;;;;;;7.76;58.37;101677.53;4920926;29;20091;-88
2020/12/11 02:33:36;;;;;;;132.43;72.68;;;;;;;7.20;58.11;101561.00;4921230;29;20039;-85
2020/12/11 02:36:03;;;;;;;109.25;68.03;;;;;;;8.10;56.78;101698.78;4918913;29;20118;-84
2020/12/11 02:38:30;;;;;;;100.53;60.17;;;;;;;8.17;55.62;101705.16;4918753;29;20059;-86
2020/12/11 02:41:01;;;;;;;116.85;65.25;;;;;;;6.92;56.76;101528.94;4932237;29;20146;-88
2020/12/11 02:43:37;;;;;;;118.95;70.00;;;;;;;7.09;57.65;101548.69;4918982;29;20038;-86
2020/12/11 02:46:06;;;;;;;126.03;74.35;;;;;;;8.11;57.75;101675.66;4918291;29;20031;-87
2020/12/11 02:48:33;;;;;;;115.88;71.68;;;;;;;7.72;58.02;101629.38;4918329;29;20038;-85
2020/12/11 02:51:00;;;;;;;124.03;78.90;;;;;;;7.55;59.42;101578.47;4917985;29;20394;-86
2020/12/11 02:53:27;;;;;;;128.30;76.18;;;;;;;8.44;57.98;101683.13;4918950;29;20066;-85
2020/12/11 02:55:58;;;;;;;126.70;77.05;;;;;;;7.30;58.83;101540.50;4919689;29;20032;-85
2020/12/11 02:58:25;;;;;;;135.15;78.80;;;;;;;7.77;59.10;101610.31;4917275;29;20042;-85
2020/12/11 03:00:52;;;;;;;123.30;66.78;;;;;;;7.67;58.50;101599.69;4926183;29;20035;-86
2020/12/11 03:03:19;;;;;;;121.80;66.40;;;;;;;8.25;58.17;101677.38;4937993;29;20027;-85
2020/12/11 03:05:46;;;;;;;114.88;66.78;;;;;;;6.93;58.09;101483.84;4918628;29;20035;-85
2020/12/11 03:08:13;;;;;;;116.07;69.13;;;;;;;7.61;58.28;101566.59;4918633;29;20086;-86
2020/12/11 03:10:40;;;;;;;117.30;66.55;;;;;;;7.50;57.91;101510.22;4943584;28;20042;-86
2020/12/11 03:13:07;;;;;;;95.07;54.83;;;;;;;7.29;57.48;101536.00;4918634;29;20027;-84
2020/12/11 03:15:34;;;;;;;99.63;57.88;;;;;;;7.97;57.88;101645.34;4917683;29;20450;-86
2020/12/11 03:18:01;;;;;;;95.40;58.15;;;;;;;8.12;58.16;101653.38;4917316;29;20027;-87
2020/12/11 03:20:28;;;;;;;99.03;58.58;;;;;;;7.63;57.21;101481.81;4916820;29;20031;-86
2020/12/11 03:22:56;;;;;;;112.65;57.63;;;;;;;7.41;58.16;101541.78;4920723;29;20122;-86
2020/12/11 03:25:26;;;;;;;99.20;59.67;;;;;;;6.92;58.74;101421.59;4921263;29;20027;-85
2020/12/11 03:27:53;;;;;;;104.88;58.63;;;;;;;8.40;57.23;101612.84;4921757;29;20035;-86
2020/12/11 03:30:20;;;;;;;104.32;59.90;;;;;;;7.77;57.61;101535.88;4937447;29;20086;-85
2020/12/11 03:32:47;;;;;;;96.50;57.08;;;;;;;8.39;57.41;101589.94;4935136;29;20102;-84
2020/12/11 03:35:14;;;;;;;98.82;57.97;;;;;;;6.30;57.61;101259.31;4932509;29;20126;-87
2020/12/11 03:37:41;;;;;;;104.95;56.25;;;;;;;8.31;57.66;101570.81;4932627;29;20098;-86
2020/12/11 03:40:08;;;;;;;102.03;56.53;;;;;;;7.18;57.42;101400.63;4835006;28;20048;-85
2020/12/11 03:42:35;;;;;;;87.03;56.60;;;;;;;7.28;57.79;101415.88;4902676;29;20043;-83
2020/12/11 03:45:02;;;;;;;93.03;58.00;;;;;;;6.72;57.39;101300.44;4931672;29;20083;-85
2020/12/11 03:47:33;;;;;;;96.03;58.15;;;;;;;7.63;56.50;101432.19;4933428;29;20039;-84
2020/12/11 03:50:00;;;;;;;94.70;54.33;;;;;;;8.34;55.94;101529.84;4935067;29;20059;-84
2020/12/11 03:52:33;;;;;;;104.28;60.70;;;;;;;7.00;55.80;101282.03;4938464;29;20119;-85
2020/12/11 03:55:00;;;;;;;109.47;65.30;;;;;;;8.53;55.51;101507.97;4933588;29;20195;-85
2020/12/11 03:57:27;;;;;;;111.78;64.68;;;;;;;8.13;56.05;101483.22;4928292;29;20093;-85
2020/12/11 03:59:54;;;;;;;105.20;63.35;;;;;;;8.03;56.78;101519.53;4932511;29;20039;-85
2020/12/11 04:02:21;;;;;;;103.65;64.22;;;;;;;7.22;57.82;101431.34;4933537;29;20083;-85
2020/12/11 04:04:48;;;;;;;105.72;62.95;;;;;;;7.39;58.43;101460.16;4938220;29;20036;-85
2020/12/11 04:07:15;;;;;;;106.10;64.68;;;;;;;7.47;57.28;101404.00;4933424;29;20027;-82
2020/12/11 04:09:42;;;;;;;106.57;63.80;;;;;;;6.57;56.34;101234.59;4931039;29;20036;-84
2020/12/11 04:12:12;;;;;;;108.85;65.13;;;;;;;7.41;56.07;101358.03;4935747;29;20028;-86
2020/12/11 04:14:38;;;;;;;;;;;;;;;8.41;56.55;101542.78;4934858;29;20034;-85
2020/12/11 04:17:05;;;;;;;121.65;64.47;;;;;;;6.98;58.50;101390.47;4932342;29;19929;-85
2020/12/11 04:19:32;;;;;;;111.25;65.28;;;;;;;7.36;58.02;101433.06;4931414;29;20069;-85
2020/12/11 04:22:00;;;;;;;124.35;70.68;;;;;;;8.26;57.69;101537.53;4934856;29;20031;-86
2020/12/11 04:24:27;;;;;;;111.53;67.45;;;;;;;8.69;56.58;101523.22;4934767;29;20070;-86
2020/12/11 04:26:54;;;;;;;114.03;67.30;;;;;;;7.18;57.13;101319.94;4935171;29;20520;-85
2020/12/11 04:29:21;;;;;;;106.53;63.80;;;;;;;7.36;57.60;101349.53;4931553;29;20042;-85
2020/12/11 04:35:03;;;;;;;105.10;61.60;;;;;;;8.12;57.32;101482.38;4932267;29;20375;-85
2020/12/11 04:37:29;;;;;;;112.07;63.35;;;;;;;7.38;57.29;101323.47;4944806;29;20035;-85
2020/12/11 04:39:56;;;;;;;130.95;68.53;;;;;;;8.35;57.18;101468.09;4930715;29;20039;-86
2020/12/11 04:42:25;;;;;;;117.10;68.55;;;;;;;8.55;56.90;101497.56;4930678;29;20043;-87
2020/12/11 04:44:52;;;;;;;117.07;66.00;;;;;;;8.04;58.00;101447.59;4932680;29;20035;-85
2020/12/11 04:47:21;;;;;;;114.07;63.88;;;;;;;7.38;57.04;101297.84;4939529;29;20027;-84
2020/12/11 04:49:48;;;;;;;102.90;60.45;;;;;;;7.57;57.75;101355.88;4933470;29;20042;-85
2020/12/11 04:52:20;;;;;;;110.10;63.78;;;;;;;6.79;58.70;101284.75;4931837;29;20031;-86
2020/12/11 04:54:50;;;;;;;103.50;62.30;;;;;;;8.01;58.88;101458.19;4932197;29;20038;-88
2020/12/11 04:57:26;;;;;;;112.38;63.53;;;;;;;8.16;59.01;101518.66;4924779;29;20035;-86
2020/12/11 04:59:53;;;;;;;109.43;64.43;;;;;;;6.81;58.52;101246.88;4925700;29;20042;-85
2020/12/11 05:02:20;;;;;;;106.93;62.17;;;;;;;7.67;59.36;101379.19;4933661;29;20027;-86
2020/12/11 05:04:53;;;;;;;111.93;64.22;;;;;;;8.27;59.71;101497.84;4945659;29;20038;-85
2020/12/11 05:07:20;;;;;;;117.10;65.63;;;;;;;8.16;59.35;101527.78;4936808;29;20107;-85
2020/12/11 05:10:00;;;;;;;111.30;64.55;;;;;;;7.86;60.71;101508.94;4932474;29;20035;-86
2020/12/11 05:12:28;;;;;;;111.35;61.30;;;;;;;7.36;60.40;101401.88;4932466;29;20026;-86
2020/12/11 05:15:00;;;;;;;112.03;64.80;;;;;;;7.71;60.51;101418.19;4931253;29;20036;-85
2020/12/11 05:17:30;;;;;;;114.43;64.82;;;;;;;6.66;62.33;101276.53;4930260;29;20047;-85
2020/12/11 05:19:58;;;;;;;103.67;57.20;;;;;;;6.51;62.68;101280.31;4933681;29;20042;-86
2020/12/11 05:22:30;;;;;;;127.57;69.63;;;;;;;6.40;62.81;101273.53;4931406;29;20102;-86
2020/12/11 05:24:58;;;;;;;118.32;69.78;;;;;;;7.22;61.88;101388.13;4931667;29;20036;-85
2020/12/11 05:27:46;;;;;;;112.50;70.40;;;;;;;8.12;60.71;101479.63;4930083;29;20497;-84
2020/12/11 05:30:13;;;;;;;131.55;75.00;;;;;;;8.26;59.68;101474.06;4930374;29;20501;-85
2020/12/11 05:32:44;;;;;;;123.35;70.32;;;;;;;8.38;59.48;101477.00;4930694;29;20040;-86
2020/12/11 05:35:25;;;;;;;135.57;75.15;;;;;;;8.31;57.39;101471.50;4932557;29;20032;-83
2020/12/11 05:37:57;;;;;;;;;;;;;;;8.28;56.91;101474.69;4931890;29;20036;-85
2020/12/11 05:40:35;;;;;;;143.02;79.95;;;;;;;8.32;56.48;101479.56;4930449;29;20662;-84
2020/12/11 05:43:21;;;;;;;130.43;73.15;;;;;;;8.20;56.72;101484.91;4931455;29;20412;-85
2020/12/11 05:45:57;;;;;;;133.02;75.65;;;;;;;8.46;55.96;101502.44;4929562;29;20032;-84
2020/12/11 05:48:42;;;;;;;137.07;79.18;;;;;;;8.03;55.96;101440.38;4921703;29;20031;-85
2020/12/11 05:51:14;;;;;;;130.07;72.90;;;;;;;8.07;56.83;101449.94;4930862;29;20038;-84
2020/12/11 05:53:41;;;;;;;146.18;77.95;;;;;;;6.87;56.94;101269.94;4930776;29;20393;-84
2020/12/11 05:56:12;;;;;;;124.88;74.15;;;;;;;8.05;56.17;101445.69;4930156;29;20047;-85
2020/12/11 05:58:42;;;;;;;132.75;71.65;;;;;;;7.19;56.83;101299.59;4930193;29;20039;-85
2020/12/11 06:01:18;;;;;;;128.85;72.20;;;;;;;6.79;56.89;101239.91;4929455;29;20035;-85
2020/12/11 06:03:46;;;;;;;134.10;73.65;;;;;;;7.92;57.18;101446.56;4932312;29;20051;-87
2020/12/11 06:06:16;;;;;;;127.95;71.70;;;;;;;8.38;55.65;101507.34;4929051;29;20024;-85
2020/12/11 06:08:46;;;;;;;126.95;75.15;;;;;;;7.71;55.77;101400.81;4925094;29;20036;-84
2020/12/11 06:11:26;;;;;;;131.02;72.28;;;;;;;7.58;55.56;101374.09;4930523;29;20425;-87
2020/12/11 06:13:56;;;;;;;;;;;;;;;7.38;56.23;101353.78;4933746;29;20093;-85
2020/12/11 06:16:24;;;;;;;107.80;61.47;;;;;;;7.71;56.97;101431.97;4935973;29;19945;-87
2020/12/11 06:19:02;;;;;;;125.78;73.72;;;;;;;8.09;57.16;101493.84;4935672;29;20086;-86
2020/12/11 06:21:30;;;;;;;132.02;71.45;;;;;;;7.87;57.50;101468.41;4940707;29;20158;-87
2020/12/11 06:23:56;;;;;;;134.68;69.75;;;;;;;6.77;57.09;101311.66;4939401;29;20047;-87
2020/12/11 06:26:23;;;;;;;129.52;75.18;;;;;;;5.98;56.55;101169.16;4949296;28;20040;-87
2020/12/11 06:28:51;;;;;;;118.35;71.85;;;;;;;8.07;56.10;101479.41;4938488;29;20072;-86
2020/12/11 06:31:23;;;;;;;130.15;69.55;;;;;;;7.03;56.63;101333.91;4938535;29;20031;-85
2020/12/11 06:33:57;;;;;;;122.30;71.70;;;;;;;7.66;56.56;101449.16;4938286;29;20042;-88
2020/12/11 06:36:24;;;;;;;125.32;73.63;;;;;;;7.38;56.32;101397.03;4939250;29;20035;-87
2020/12/11 06:38:54;;;;;;;124.35;72.60;;;;;;;7.95;57.42;101481.97;4939763;29;20027;-85
2020/12/11 06:41:33;;;;;;;123.60;72.00;;;;;;;8.03;56.74;101492.78;4942099;28;20047;-86
2020/12/11 06:44:20;;;;;;;120.07;69.82;;;;;;;7.99;56.98;101491.53;4940044;28;20023;-87
2020/12/11 06:47:11;;;;;;;129.65;72.97;;;;;;;7.47;57.14;101423.31;4938853;28;20074;-86
2020/12/11 06:50:05;;;;;;;133.55;70.20;;;;;;;7.95;57.00;101504.03;4938586;29;20035;-86
2020/12/11 06:52:35;;;;;;;124.00;71.53;;;;;;;6.83;56.94;101329.22;4954785;28;20046;-86
2020/12/11 06:55:03;;;;;;;120.07;71.07;;;;;;;8.11;56.43;101499.13;4937224;29;20086;-85
2020/12/11 06:57:44;;;;;;;138.00;74.18;;;;;;;7.96;56.36;101486.44;4937691;28;20401;-86
2020/12/11 07:00:30;;;;;;;129.43;70.95;;;;;;;7.87;55.11;101496.00;4936143;28;20043;-86
2020/12/11 07:03:17;;;;;;;113.85;67.38;;;;;;;8.19;54.79;101485.09;4935534;29;20485;-86
2020/12/11 07:05:45;;;;;;;122.15;69.38;;;;;;;8.12;55.12;101490.66;4953932;28;20028;-87
2020/12/11 07:08:24;;;;;;;129.50;70.35;;;;;;;7.75;55.19;101422.22;4936038;28;20053;-86
2020/12/11 07:10:51;;;;;;;126.53;72.28;;;;;;;8.23;55.60;101491.91;4953000;28;20024;-87
2020/12/11 07:13:18;;;;;;;128.20;73.93;;;;;;;8.33;55.60;101496.97;4952707;28;20544;-84
2020/12/11 07:15:46;;;;;;;126.25;73.00;;;;;;;6.89;55.53;101264.25;4935846;29;20031;-87
2020/12/11 07:18:17;;;;;;;126.47;73.40;;;;;;;6.96;55.47;101307.22;4936935;28;20120;-86
2020/12/11 07:20:58;;;;;;;126.65;71.28;;;;;;;8.19;55.88;101487.88;4937960;28;20095;-85
2020/12/11 07:23:26;;;;;;;126.93;72.15;;;;;;;6.96;56.77;101318.22;4948193;28;20130;-86
2020/12/11 07:25:55;;;;;;;122.55;71.95;;;;;;;7.52;57.08;101395.97;4936115;29;20058;-85
2020/12/11 07:28:23;;;;;;;131.05;75.65;;;;;;;8.00;57.60;101493.22;4935994;28;20086;-84
2020/12/11 07:30:50;;;;;;;135.82;73.82;;;;;;;7.46;58.38;101391.31;4935581;28;20034;-86
2020/12/11 07:33:17;;;;;;;130.77;77.75;;;;;;;7.89;59.46;101480.06;4935233;28;20498;-86
2020/12/11 07:35:47;;;;;;;129.98;74.53;;;;;;;6.82;59.40;101328.41;4960017;28;20202;-84
2020/12/11 07:38:16;;;;;;;139.15;78.15;;;;;;;7.24;60.49;101413.56;4946957;28;20050;-85
2020/12/11 07:40:44;;;;;;;132.13;70.70;;;;;;;7.68;59.33;101446.19;4935987;28;20030;-85
2020/12/11 07:43:12;;;;;;;147.75;78.72;;;;;;;7.95;58.57;101487.50;4934492;28;20062;-85
2020/12/11 07:45:41;;;;;;;135.15;78.07;;;;;;;7.43;58.76;101449.56;4935235;28;20032;-86
2020/12/11 07:48:07;;;;;;;143.48;79.65;;;;;;;7.31;57.81;101429.25;4934109;28;20038;-86
2020/12/11 07:50:34;;;;;;;141.55;75.82;;;;;;;5.81;57.95;101220.91;4934663;28;20031;-86
2020/12/11 07:53:11;;;;;;;141.63;76.22;;;;;;;6.33;57.59;101269.94;4954203;28;20098;-85
2020/12/11 07:55:38;;;;;;;139.27;76.60;;;;;;;6.79;57.53;101349.97;4935495;28;20039;-87
2020/12/11 07:58:05;;;;;;;141.80;78.20;;;;;;;7.66;57.08;101479.47;4951893;28;20101;-84
2020/12/11 08:00:36;;;;;;;134.10;76.03;;;;;;;7.53;57.34;101484.97;4934593;28;20070;-87
2020/12/11 08:03:08;;;;;;;134.80;80.65;;;;;;;6.82;56.98;101377.06;4935017;28;20031;-85
2020/12/11 08:05:37;;;;;;;149.32;82.68;;;;;;;7.53;57.41;101485.84;4955767;28;20063;-85
2020/12/11 08:08:05;;;;;;;151.43;83.28;;;;;;;7.47;57.80;101489.44;4937728;28;20035;-84
2020/12/11 08:10:38;;;;;;;155.68;79.93;;;;;;;6.79;58.02;101399.53;4957399;28;20027;-86
2020/12/11 08:13:15;;;;;;;149.35;80.82;;;;;;;7.34;59.32;101494.91;4940198;28;20049;-87
2020/12/11 08:15:45;;;;;;;155.25;85.93;;;;;;;7.36;60.06;101498.31;4940482;29;20098;-85
2020/12/11 08:18:19;;;;;;;153.15;81.95;;;;;;;7.29;60.99;101480.91;4936624;28;20034;-84
2020/12/11 08:20:51;;;;;;;154.05;83.10;;;;;;;7.29;60.66;101483.69;4936725;28;20034;-85
2020/12/11 08:23:22;;;;;;;159.57;85.57;;;;;;;6.79;61.09;101416.03;4934817;29;20528;-82
2020/12/11 08:26:08;;;;;;;157.73;84.05;;;;;;;6.82;61.45;101418.38;4937422;29;20108;-85
2020/12/11 08:28:35;;;;;;;156.68;87.18;;;;;;;7.35;61.43;101491.97;4934752;28;20063;-87
2020/12/11 08:31:26;;;;;;;152.23;83.05;;;;;;;7.09;61.79;101459.72;4935572;28;20118;-85
2020/12/11 08:34:14;;;;;;;158.98;89.13;;;;;;;6.48;62.89;101371.50;4935042;28;20496;-84
2020/12/11 08:36:46;;;;;;;162.93;88.43;;;;;;;6.02;61.51;101288.66;4935179;28;20047;-84
2020/12/11 08:39:28;;;;;;;139.52;84.75;;;;;;;7.00;61.71;101455.47;4934928;28;20475;-85
2020/12/11 08:45:00;;;;;;;155.98;89.85;;;;;;;7.31;61.84;101501.69;4934002;29;20060;-84
2020/12/11 08:48:31;;;;;;;164.68;86.40;;;;;;;6.54;62.19;101400.13;4930797;29;20043;-85
2020/12/11 08:52:57;;;;;;;161.65;88.35;;;;;;;7.00;62.99;101475.59;4933013;29;20027;-85
2020/12/11 08:55:24;;;;;;;157.10;88.57;;;;;;;6.13;63.27;101347.69;4932303;29;20028;-85
2020/12/11 08:57:51;;;;;;;163.65;90.50;;;;;;;5.87;62.86;101291.56;4931019;29;20493;-86
2020/12/11 09:00:18;;;;;;;169.27;92.72;;;;;;;7.13;63.48;101507.81;4931405;29;20813;-84
2020/12/11 09:02:45;;;;;;;162.52;85.72;;;;;;;6.66;63.25;101439.72;4932193;29;20126;-83
2020/12/11 09:05:12;;;;;;;156.20;86.18;;;;;;;7.18;62.74;101529.25;4934488;29;20028;-83
2020/12/11 09:07:39;;;;;;;164.45;90.88;;;;;;;6.01;62.57;101365.81;4933074;29;20490;-86
2020/12/11 09:10:06;;;;;;;157.27;93.95;;;;;;;6.88;63.67;101527.66;4931077;29;20036;-88
2020/12/11 09:12:37;;;;;;;167.90;93.85;;;;;;;4.93;63.64;101206.78;4932877;29;20035;-86
2020/12/11 09:15:09;;;;;;;165.35;91.38;;;;;;;6.83;62.85;101491.63;4937446;29;20066;-92
2020/12/11 09:17:36;;;;;;;165.65;92.00;;;;;;;6.38;63.27;101434.31;4935701;29;20127;-89
2020/12/11 09:20:04;;;;;;;167.18;92.78;;;;;;;5.32;63.31;101259.38;4932034;29;20036;-92
2020/12/11 09:22:34;;;;;;;177.13;94.93;;;;;;;5.42;64.09;101329.56;4931757;29;20028;-89
2020/12/11 09:25:02;;;;;;;183.13;90.85;;;;;;;5.47;64.09;101310.59;4933390;29;20096;-90
2020/12/11 09:27:35;;;;;;;164.48;94.28;;;;;;;3.85;64.18;101028.84;4942216;29;20042;-95
2020/12/11 09:32:59;;;;;;;179.23;94.53;;;;;;;5.30;63.50;101250.47;4948203;28;20050;-92
2020/12/11 09:35:29;;;;;;;179.63;99.35;;;;;;;6.79;64.39;101521.47;4938706;29;20036;-94
2020/12/11 09:37:57;;;;;;;166.88;93.55;;;;;;;5.65;63.78;101292.72;4928088;29;20035;-92
2020/12/11 09:43:43;;;;;;;159.70;93.40;;;;;;;6.21;63.31;101356.81;4945556;29;20058;-88
2020/12/11 09:48:39;;;;;;;174.25;97.13;;;;;;;7.19;62.58;101504.22;4935179;29;20087;-88
2020/12/11 09:56:08;;;;;;;173.18;94.97;;;;;;;7.10;63.70;101495.31;4933075;29;20070;-87
2020/12/11 09:58:39;;;;;;;173.43;96.53;;;;;;;6.38;63.66;101377.44;4919119;29;20035;-87
2020/12/11 10:01:07;;;;;;;187.57;101.55;;;;;;;6.83;63.36;101455.84;4920211;29;20038;-87
2020/12/11 10:03:38;;;;;;;163.32;99.00;;;;;;;6.88;64.22;101516.63;4922103;29;20031;-88
2020/12/11 10:06:08;;;;;;;173.90;97.00;;;;;;;6.17;64.42;101392.13;4919825;29;20131;-86
2020/12/11 10:08:39;;;;;;;170.90;99.20;;;;;;;6.49;64.38;101408.13;4921312;29;20485;-87
2020/12/11 10:11:06;;;;;;;169.00;96.63;;;;;;;5.81;64.04;101297.84;4933421;29;20067;-86
2020/12/11 10:13:35;;;;;;;176.77;97.75;;;;;;;5.97;64.91;101345.28;4924043;28;20528;-90
2020/12/11 10:16:02;;;;;;;164.15;93.88;;;;;;;6.54;64.54;101405.63;4950626;28;20038;-90
2020/12/11 10:18:32;;;;;;;179.52;105.63;;;;;;;7.01;64.34;101503.97;4944304;28;20038;-93
2020/12/11 10:20:59;;;;;;;173.60;102.22;;;;;;;6.42;64.60;101414.44;4942626;28;20041;-93
2020/12/11 10:23:29;;;;;;;167.82;94.00;;;;;;;6.45;65.08;101462.72;4942600;28;20039;-96
2020/12/11 10:25:56;;;;;;;179.20;93.05;;;;;;;6.47;64.45;101451.50;4945700;28;20031;-93
2020/12/11 10:28:23;;;;;;;151.65;89.55;;;;;;;5.62;64.95;101346.16;4940481;28;20019;-86
2020/12/11 10:30:50;;;;;;;154.98;87.80;;;;;;;6.10;65.03;101430.59;4938125;28;20047;-86
2020/12/11 10:33:17;;;;;;;163.43;93.55;;;;;;;6.47;64.10;101457.00;4939371;28;20066;-87
2020/12/11 10:35:44;;;;;;;159.25;90.40;;;;;;;6.18;65.15;101431.50;4957548;28;20474;-87
2020/12/11 10:38:10;;;;;;;180.45;98.60;;;;;;;6.77;64.62;101522.75;4941156;28;21534;-89
2020/12/11 10:40:37;;;;;;;171.82;99.07;;;;;;;6.64;63.85;101458.34;4948853;28;20840;-90
2020/12/11 10:43:04;;;;;;;167.00;101.55;;;;;;;6.57;63.31;101418.94;4955254;28;20548;-89
2020/12/11 10:45:31;;;;;;;171.75;97.50;;;;;;;6.81;64.21;101463.47;4953941;28;20051;-89
2020/12/11 10:47:58;;;;;;;173.10;95.47;;;;;;;6.40;63.97;101437.72;4949303;28;20094;-90
2020/12/11 10:50:34;;;;;;;179.93;97.63;;;;;;;6.71;64.85;101513.38;4946517;28;20038;-91
2020/12/11 10:53:01;;;;;;;173.50;103.32;;;;;;;5.83;65.03;101380.94;4944682;28;20023;-89
2020/12/11 10:55:28;;;;;;;169.45;95.28;;;;;;;5.48;64.56;101321.34;4940895;29;20035;-86
2020/12/11 10:57:55;;;;;;;157.20;93.63;;;;;;;6.44;64.27;101452.75;4949195;28;20036;-92
2020/12/11 11:00:26;;;;;;;169.13;91.47;;;;;;;5.74;64.60;101371.16;4963672;28;20098;-92
2020/12/11 11:02:53;;;;;;;165.23;91.22;;;;;;;5.25;64.92;101272.22;4944279;28;20035;-90
2020/12/11 11:05:20;;;;;;;178.27;96.20;;;;;;;6.39;65.91;101511.16;4945745;28;20035;-92
2020/12/11 11:07:47;;;;;;;165.35;89.57;;;;;;;6.56;64.60;101511.63;4943588;28;20129;-92
2020/12/11 11:10:18;;;;;;;162.55;92.93;;;;;;;6.34;64.64;101463.28;4946888;28;20038;-89
2020/12/11 11:13:04;;;;;;;155.05;89.07;;;;;;;6.51;65.18;101507.81;4944248;28;20070;-93
2020/12/11 11:15:43;;;;;;;157.85;88.18;;;;;;;6.30;64.75;101469.19;4947275;28;20054;-89
2020/12/11 11:20:55;;;;;;;167.98;92.05;;;;;;;6.11;65.32;101475.44;4963234;28;20054;-91
2020/12/11 11:23:36;;;;;;;167.15;90.13;;;;;;;5.81;64.78;101407.78;4956806;28;20015;-91
2020/12/11 11:28:30;;;;;;;156.02;91.43;;;;;;;5.46;65.38;101385.78;4967023;28;20507;-89
2020/12/11 11:30:57;;;;;;;161.10;92.15;;;;;;;6.26;65.43;101524.81;4938809;29;20098;-84
2020/12/11 11:33:24;;;;;;;158.88;93.28;;;;;;;5.26;65.76;101370.00;4958631;28;20114;-92
2020/12/11 11:35:51;;;;;;;162.18;87.97;;;;;;;5.69;65.16;101414.88;4945327;28;20099;-88
2020/12/11 11:38:19;;;;;;;158.48;88.47;;;;;;;6.14;65.92;101508.03;4940600;28;20457;-91
2020/12/11 11:40:50;;;;;;;168.90;93.88;;;;;;;5.20;66.37;101368.06;4940941;28;20031;-93
2020/12/11 11:43:23;;;;;;;152.23;87.18;;;;;;;5.26;64.67;101356.28;4944627;28;20074;-92
2020/12/11 11:45:50;;;;;;;158.10;87.82;;;;;;;6.26;65.74;101520.19;4938550;28;20062;-89
2020/12/11 11:48:18;;;;;;;161.45;87.25;;;;;;;6.24;66.03;101519.50;4940406;28;20039;-90